createdAt,value
2023-04-02T00:00:26.422Z,2.94
2023-04-02T00:01:28.440Z,2.82
2023-04-02T00:02:26.423Z,2.44
2023-04-02T00:03:23.824Z,2.46
2023-04-02T00:04:22.800Z,2.62
2023-04-02T00:05:31.598Z,2.43
2023-04-02T00:06:35.030Z,2.55
2023-04-02T00:07:33.786Z,2.62
2023-04-02T00:08:41.142Z,2.33
2023-04-02T00:09:39.050Z,2.61
2023-04-02T00:10:46.585Z,2.85
2023-04-02T00:11:45.591Z,2.39
2023-04-02T00:12:59.033Z,2.47
2023-04-02T00:14:01.079Z,2.85
2023-04-02T00:14:58.799Z,2.70
2023-04-02T00:15:58.034Z,2.51
2023-04-02T00:16:57.311Z,2.71
2023-04-02T00:17:54.739Z,2.63
2023-04-02T00:18:55.659Z,2.43
2023-04-02T00:20:07.080Z,2.41
2023-04-02T00:21:22.393Z,2.12
2023-04-02T00:22:21.038Z,2.30
2023-04-02T00:23:18.962Z,2.14
2023-04-02T00:24:18.241Z,1.95
2023-04-02T00:25:15.702Z,2.16
2023-04-02T00:26:40.984Z,2.08
2023-04-02T00:27:38.399Z,2.26
2023-04-02T00:28:35.726Z,1.96
2023-04-02T00:29:33.076Z,1.89
2023-04-02T00:30:30.513Z,1.86
2023-04-02T00:31:28.404Z,1.96
2023-04-02T00:32:28.195Z,2.10
2023-04-02T00:33:31.532Z,2.19
2023-04-02T00:34:37.352Z,2.02
2023-04-02T00:35:39.205Z,2.05
2023-04-02T00:36:37.594Z,2.14
2023-04-02T00:37:39.492Z,2.04
2023-04-02T00:38:38.452Z,2.22
2023-04-02T00:39:42.121Z,2.16
2023-04-02T00:40:40.100Z,2.09
2023-04-02T00:41:38.889Z,2.31
2023-04-02T00:42:40.154Z,2.17
2023-04-02T00:43:38.482Z,2.20
2023-04-02T00:44:44.269Z,2.29
2023-04-02T00:45:51.136Z,2.46
2023-04-02T00:46:50.152Z,1.97
2023-04-02T00:47:47.530Z,1.94
2023-04-02T00:48:50.599Z,2.07
2023-04-02T00:49:51.771Z,2.29
2023-04-02T00:50:49.125Z,2.31
2023-04-02T00:52:06.680Z,2.01
2023-04-02T00:53:10.317Z,2.05
2023-04-02T00:54:15.762Z,2.02
2023-04-02T00:55:21.547Z,2.07
2023-04-02T00:56:32.042Z,1.92
2023-04-02T00:57:29.986Z,1.82
2023-04-02T00:58:27.341Z,1.87
2023-04-02T00:59:27.816Z,2.04
2023-04-02T01:00:30.675Z,1.92
2023-04-02T01:01:34.283Z,2.05
2023-04-02T01:02:33.701Z,1.95
2023-04-02T01:03:36.571Z,1.66
2023-04-02T01:04:36.522Z,1.75
2023-04-02T01:05:36.999Z,1.78
2023-04-02T01:06:38.846Z,1.97
2023-04-02T01:07:47.682Z,1.74
2023-04-02T01:08:57.047Z,1.68
2023-04-02T01:10:18.318Z,1.54
2023-04-02T01:11:34.338Z,1.64
2023-04-02T01:12:49.714Z,1.81
2023-04-02T01:14:05.979Z,1.66
2023-04-02T01:15:06.173Z,1.86
2023-04-02T01:16:15.659Z,1.67
2023-04-02T01:17:18.432Z,1.71
2023-04-02T01:18:31.515Z,1.53
2023-04-02T01:19:35.626Z,1.54
2023-04-02T01:20:47.926Z,1.74
2023-04-02T01:21:54.149Z,1.64
2023-04-02T01:23:18.196Z,1.92
2023-04-02T01:24:15.935Z,1.39
2023-04-02T01:25:25.050Z,1.70
2023-04-02T01:26:32.913Z,1.52
2023-04-02T01:27:38.801Z,1.38
2023-04-02T01:28:54.806Z,1.51
2023-04-02T01:29:56.850Z,1.76
2023-04-02T01:30:59.830Z,1.31
2023-04-02T01:32:06.845Z,1.66
2023-04-02T01:33:05.804Z,1.35
2023-04-02T01:34:06.825Z,1.37
2023-04-02T01:35:04.696Z,1.50
2023-04-02T01:36:22.314Z,1.39
2023-04-02T01:37:37.923Z,1.41
2023-04-02T01:38:43.177Z,1.56
2023-04-02T01:40:05.929Z,1.47
2023-04-02T01:41:09.741Z,1.34
2023-04-02T01:42:20.892Z,1.48
2023-04-02T01:43:29.993Z,1.39
2023-04-02T01:44:37.602Z,1.50
2023-04-02T01:45:35.536Z,1.61
2023-04-02T01:46:35.019Z,1.43
2023-04-02T01:47:33.239Z,1.49
2023-04-02T01:48:31.138Z,1.70
2023-04-02T01:49:28.621Z,1.47
2023-04-02T01:50:37.049Z,1.51
2023-04-02T01:51:36.122Z,1.47
2023-04-02T01:52:41.885Z,1.57
2023-04-02T01:53:39.244Z,1.64
2023-04-02T01:54:37.901Z,1.51
2023-04-02T01:55:35.526Z,1.53
2023-04-02T01:56:35.610Z,1.77
2023-04-02T01:57:33.165Z,1.45
2023-04-02T01:58:32.458Z,1.39
2023-04-02T01:59:33.244Z,1.51
2023-04-02T02:00:32.502Z,1.54
2023-04-02T02:01:44.219Z,1.22
2023-04-02T02:02:42.926Z,1.26
2023-04-02T02:03:42.542Z,1.27
2023-04-02T02:04:40.947Z,1.54
2023-04-02T02:05:38.466Z,1.38
2023-04-02T02:06:36.217Z,1.19
2023-04-02T02:07:33.594Z,1.20
2023-04-02T02:08:46.135Z,1.38
2023-04-02T02:09:44.285Z,1.26
2023-04-02T02:10:42.080Z,1.36
2023-04-02T02:11:39.578Z,1.09
2023-04-02T02:12:36.936Z,1.31
2023-04-02T02:13:34.247Z,1.60
2023-04-02T02:14:31.821Z,1.22
2023-04-02T02:15:33.056Z,1.23
2023-04-02T02:16:32.037Z,1.45
2023-04-02T02:17:34.627Z,1.54
2023-04-02T02:18:33.004Z,1.36
2023-04-02T02:19:37.170Z,1.31
2023-04-02T02:20:35.063Z,1.11
2023-04-02T02:21:47.887Z,1.33
2023-04-02T02:22:47.218Z,1.22
2023-04-02T02:23:44.911Z,1.35
2023-04-02T02:24:42.554Z,1.28
2023-04-02T02:25:40.516Z,1.25
2023-04-02T02:26:38.890Z,1.36
2023-04-02T02:27:41.978Z,1.12
2023-04-02T02:28:43.677Z,1.25
2023-04-02T02:29:43.606Z,1.31
2023-04-02T02:30:47.512Z,1.32
2023-04-02T02:31:48.497Z,1.32
2023-04-02T02:32:59.030Z,1.45
2023-04-02T02:34:00.675Z,1.31
2023-04-02T02:35:19.819Z,1.12
2023-04-02T02:36:24.539Z,1.25
2023-04-02T02:37:29.162Z,1.24
2023-04-02T02:38:29.283Z,1.33
2023-04-02T02:39:27.991Z,1.43
2023-04-02T02:40:31.642Z,1.35
2023-04-02T02:41:31.728Z,1.16
2023-04-02T02:42:34.292Z,1.14
2023-04-02T02:43:33.449Z,1.41
2023-04-02T02:44:35.011Z,1.52
2023-04-02T02:45:37.924Z,1.31
2023-04-02T02:46:41.710Z,1.45
2023-04-02T02:47:42.126Z,1.33
2023-04-02T02:48:42.070Z,1.15
2023-04-02T02:49:46.183Z,1.29
2023-04-02T02:50:44.142Z,1.29
2023-04-02T02:51:47.212Z,1.43
2023-04-02T02:52:46.888Z,1.24
2023-04-02T02:53:47.014Z,1.27
2023-04-02T02:54:48.064Z,1.26
2023-04-02T02:55:47.870Z,1.21
2023-04-02T02:56:52.982Z,1.44
2023-04-02T02:57:54.728Z,1.30
2023-04-02T02:58:54.119Z,1.40
2023-04-02T02:59:53.704Z,1.34
2023-04-02T03:00:51.298Z,1.32
2023-04-02T03:01:48.790Z,1.28
2023-04-02T03:02:47.461Z,1.19
2023-04-02T03:03:47.635Z,1.35
2023-04-02T03:04:51.163Z,1.35
2023-04-02T03:06:02.213Z,1.34
2023-04-02T03:06:59.571Z,1.21
2023-04-02T03:07:58.695Z,1.29
2023-04-02T03:09:14.937Z,1.24
2023-04-02T03:10:30.002Z,1.31
2023-04-02T03:11:35.662Z,1.23
2023-04-02T03:12:42.580Z,1.27
2023-04-02T03:13:42.091Z,1.29
2023-04-02T03:14:50.668Z,1.25
2023-04-02T03:15:56.046Z,1.40
2023-04-02T03:16:59.705Z,1.37
2023-04-02T03:18:02.793Z,1.30
2023-04-02T03:19:12.945Z,1.27
2023-04-02T03:20:16.120Z,1.42
2023-04-02T03:21:16.317Z,1.39
2023-04-02T03:22:23.526Z,1.18
2023-04-02T03:23:25.695Z,1.47
2023-04-02T03:24:43.223Z,1.26
2023-04-02T03:25:43.494Z,1.29
2023-04-02T03:26:46.022Z,1.22
2023-04-02T03:27:47.662Z,1.10
2023-04-02T03:28:55.599Z,1.51
2023-04-02T03:30:05.424Z,1.43
2023-04-02T03:31:13.991Z,1.37
2023-04-02T03:32:11.315Z,1.27
2023-04-02T03:33:17.329Z,1.17
2023-04-02T03:34:21.203Z,1.28
2023-04-02T03:35:27.412Z,1.29
2023-04-02T03:36:28.613Z,1.30
2023-04-02T03:37:25.958Z,1.18
2023-04-02T03:38:28.602Z,1.25
2023-04-02T03:39:32.225Z,1.46
2023-04-02T03:40:37.705Z,1.47
2023-04-02T03:41:49.586Z,1.23
2023-04-02T03:42:54.146Z,1.30
2023-04-02T03:43:58.439Z,1.26
2023-04-02T03:45:28.101Z,1.08
2023-04-02T03:46:43.673Z,1.09
2023-04-02T03:47:43.859Z,1.08
2023-04-02T03:48:45.701Z,1.12
2023-04-02T03:49:55.102Z,1.16
2023-04-02T03:51:14.489Z,0.93
2023-04-02T03:52:14.697Z,1.01
2023-04-02T03:53:12.435Z,1.11
2023-04-02T03:54:15.203Z,1.17
2023-04-02T03:55:15.960Z,1.13
2023-04-02T03:56:23.070Z,1.11
2023-04-02T03:57:46.067Z,1.16
2023-04-02T03:58:49.399Z,1.30
2023-04-02T03:59:58.247Z,1.09
2023-04-02T04:01:12.473Z,1.09
2023-04-02T04:02:31.771Z,1.23
2023-04-02T04:03:40.188Z,1.17
2023-04-02T04:04:41.493Z,1.34
2023-04-02T04:05:48.400Z,1.44
2023-04-02T04:06:50.735Z,1.26
2023-04-02T04:07:51.631Z,1.17
2023-04-02T04:08:51.849Z,1.30
2023-04-02T04:09:52.399Z,1.01
2023-04-02T04:10:55.816Z,1.26
2023-04-02T04:12:00.373Z,1.12
2023-04-02T04:13:04.883Z,1.01
2023-04-02T04:14:29.086Z,1.22
2023-04-02T04:15:34.588Z,1.03
2023-04-02T04:16:49.898Z,1.04
2023-04-02T04:18:02.594Z,1.14
2023-04-02T04:19:05.116Z,1.23
2023-04-02T04:20:17.712Z,1.22
2023-04-02T04:21:31.089Z,1.32
2023-04-02T04:22:33.942Z,1.39
2023-04-02T04:23:37.056Z,1.17
2023-04-02T04:24:39.228Z,1.09
2023-04-02T04:25:37.370Z,0.98
2023-04-02T04:26:53.624Z,1.14
2023-04-02T04:28:05.705Z,1.76
2023-04-02T04:29:21.839Z,1.16
2023-04-02T04:30:30.412Z,1.18
2023-04-02T04:31:34.704Z,1.35
2023-04-02T04:32:50.564Z,1.26
2023-04-02T04:33:54.888Z,0.95
2023-04-02T04:34:56.688Z,1.04
2023-04-02T04:35:58.353Z,1.08
2023-04-02T04:37:01.756Z,0.87
2023-04-02T04:38:12.160Z,0.92
2023-04-02T04:39:15.502Z,1.09
2023-04-02T04:40:20.569Z,1.06
2023-04-02T04:41:24.383Z,1.00
2023-04-02T04:42:26.579Z,0.83
2023-04-02T04:43:38.750Z,0.88
2023-04-02T04:44:38.857Z,1.03
2023-04-02T04:45:50.563Z,1.10
2023-04-02T04:47:06.625Z,0.97
2023-04-02T04:48:13.416Z,0.79
2023-04-02T04:49:16.540Z,0.80
2023-04-02T04:50:29.637Z,0.92
2023-04-02T04:51:34.785Z,1.04
2023-04-02T04:52:38.387Z,0.72
2023-04-02T04:53:45.798Z,0.93
2023-04-02T04:54:43.164Z,1.00
2023-04-02T04:55:44.187Z,1.10
2023-04-02T04:56:47.442Z,0.84
2023-04-02T04:57:45.427Z,0.91
2023-04-02T04:58:48.941Z,0.74
2023-04-02T04:59:52.938Z,1.04
2023-04-02T05:01:03.558Z,1.00
2023-04-02T05:02:26.927Z,0.92
2023-04-02T05:03:31.020Z,1.05
2023-04-02T05:04:35.754Z,0.96
2023-04-02T05:05:37.593Z,1.03
2023-04-02T05:06:41.398Z,0.99
2023-04-02T05:07:48.043Z,1.06
2023-04-02T05:08:49.148Z,1.10
2023-04-02T05:10:13.263Z,1.25
2023-04-02T05:11:15.647Z,0.86
2023-04-02T05:12:18.772Z,0.84
2023-04-02T05:13:21.963Z,0.72
2023-04-02T05:14:25.480Z,0.79
2023-04-02T05:15:42.295Z,0.69
2023-04-02T05:16:46.949Z,0.88
2023-04-02T05:18:02.970Z,0.69
2023-04-02T05:19:23.126Z,0.66
2023-04-02T05:20:25.740Z,0.59
2023-04-02T05:21:40.490Z,0.70
2023-04-02T05:22:43.565Z,0.76
2023-04-02T05:23:51.774Z,0.72
2023-04-02T05:24:49.061Z,0.66
2023-04-02T05:25:52.233Z,0.91
2023-04-02T05:26:52.214Z,0.77
2023-04-02T05:28:04.630Z,0.64
2023-04-02T05:29:09.534Z,0.64
2023-04-02T05:30:12.698Z,0.89
2023-04-02T05:31:13.714Z,0.71
2023-04-02T05:32:17.571Z,0.78
2023-04-02T05:33:22.221Z,0.80
2023-04-02T05:34:33.606Z,0.63
2023-04-02T05:35:35.221Z,0.53
2023-04-02T05:36:33.226Z,0.70
2023-04-02T05:37:31.478Z,0.85
2023-04-02T05:38:32.167Z,0.81
2023-04-02T05:39:29.582Z,0.57
2023-04-02T05:40:31.674Z,0.71
2023-04-02T05:41:40.949Z,0.79
2023-04-02T05:42:41.635Z,1.74
2023-04-02T05:43:44.769Z,1.90
2023-04-02T05:44:51.311Z,1.20
2023-04-02T05:45:53.274Z,1.01
2023-04-02T05:46:53.496Z,0.73
2023-04-02T05:47:54.517Z,0.73
2023-04-02T05:48:56.247Z,0.82
2023-04-02T05:50:08.721Z,1.15
2023-04-02T05:51:09.475Z,1.20
2023-04-02T05:52:12.032Z,1.06
2023-04-02T05:53:24.516Z,1.12
2023-04-02T05:54:28.538Z,0.96
2023-04-02T05:55:42.904Z,1.27
2023-04-02T05:56:44.068Z,1.14
2023-04-02T05:58:13.324Z,1.20
2023-04-02T05:59:19.596Z,1.80
2023-04-02T06:00:46.078Z,1.64
2023-04-02T06:01:47.902Z,2.03
2023-04-02T06:02:54.871Z,2.08
2023-04-02T06:04:11.059Z,3.66
2023-04-02T06:05:17.325Z,2.85
2023-04-02T06:06:28.201Z,1.83
2023-04-02T06:07:41.091Z,1.90
2023-04-02T06:08:43.534Z,2.21
2023-04-02T06:09:48.263Z,2.94
2023-04-02T06:10:51.674Z,2.61
2023-04-02T06:12:11.977Z,3.02
2023-04-02T06:13:13.867Z,4.33
2023-04-02T06:14:16.198Z,3.24
2023-04-02T06:15:17.614Z,2.89
2023-04-02T06:16:16.720Z,2.11
2023-04-02T06:17:16.503Z,3.09
2023-04-02T06:18:19.593Z,2.37
2023-04-02T06:19:28.290Z,2.13
2023-04-02T06:20:26.433Z,1.85
2023-04-02T06:21:23.841Z,1.90
2023-04-02T06:22:21.424Z,2.10
2023-04-02T06:23:23.443Z,2.21
2023-04-02T06:24:25.375Z,2.20
2023-04-02T06:25:29.841Z,1.83
2023-04-02T06:26:42.806Z,2.26
2023-04-02T06:27:43.127Z,3.22
2023-04-02T06:28:46.284Z,3.64
2023-04-02T06:29:45.944Z,3.28
2023-04-02T06:30:43.605Z,3.82
2023-04-02T06:31:56.878Z,4.42
2023-04-02T06:32:54.269Z,4.19
2023-04-02T06:33:52.446Z,3.78
2023-04-02T06:34:50.079Z,3.45
2023-04-02T06:35:51.281Z,3.84
2023-04-02T06:36:50.739Z,3.57
2023-04-02T06:37:51.132Z,3.61
2023-04-02T06:38:50.166Z,3.67
2023-04-02T06:39:47.508Z,2.79
2023-04-02T06:40:53.732Z,2.11
2023-04-02T06:42:04.048Z,2.43
2023-04-02T06:43:07.094Z,3.75
2023-04-02T06:44:10.804Z,3.14
2023-04-02T06:45:16.702Z,2.24
2023-04-02T06:46:19.992Z,2.67
2023-04-02T06:47:32.278Z,2.57
2023-04-02T06:48:31.352Z,3.03
2023-04-02T06:49:37.686Z,3.17
2023-04-02T06:50:55.503Z,3.58
2023-04-02T06:51:55.027Z,2.74
2023-04-02T06:52:54.110Z,3.07
2023-04-02T06:53:51.833Z,3.48
2023-04-02T06:54:49.464Z,3.37
2023-04-02T06:55:47.055Z,3.32
2023-04-02T06:56:47.552Z,3.48
2023-04-02T06:57:44.945Z,3.48
2023-04-02T06:58:42.314Z,3.10
2023-04-02T06:59:42.055Z,2.74
2023-04-02T07:00:42.007Z,2.87
2023-04-02T07:01:43.786Z,3.01
2023-04-02T07:02:41.769Z,3.56
2023-04-02T07:03:41.074Z,4.38
2023-04-02T07:04:38.549Z,4.16
2023-04-02T07:05:36.171Z,4.05
2023-04-02T07:06:33.914Z,4.00
2023-04-02T07:07:31.390Z,4.05
2023-04-02T07:08:28.803Z,4.45
2023-04-02T07:09:26.742Z,4.21
2023-04-02T07:10:24.174Z,3.87
2023-04-02T07:11:22.351Z,3.57
2023-04-02T07:12:24.029Z,3.47
2023-04-02T07:13:23.048Z,3.33
2023-04-02T07:14:20.482Z,3.37
2023-04-02T07:15:19.563Z,2.70
2023-04-02T07:16:19.851Z,2.38
2023-04-02T07:17:18.414Z,2.49
2023-04-02T07:18:24.678Z,2.73
2023-04-02T07:19:22.991Z,2.44
2023-04-02T07:20:34.599Z,2.42
2023-04-02T07:21:32.059Z,1.74
2023-04-02T07:22:29.432Z,1.96
2023-04-02T07:23:26.791Z,1.72
2023-04-02T07:24:24.072Z,1.72
2023-04-02T07:25:22.053Z,1.49
2023-04-02T07:26:22.275Z,1.39
2023-04-02T07:27:19.644Z,1.16
2023-04-02T07:28:17.992Z,0.94
2023-04-02T07:29:17.487Z,1.01
2023-04-02T07:30:15.407Z,1.11
2023-04-02T07:31:27.214Z,1.02
2023-04-02T07:32:24.543Z,0.95
2023-04-02T07:33:23.975Z,0.82
2023-04-02T07:34:21.434Z,0.73
2023-04-02T07:35:18.756Z,0.74
2023-04-02T07:36:18.007Z,0.76
2023-04-02T07:37:15.608Z,0.62
2023-04-02T07:38:12.990Z,0.59
2023-04-02T07:39:10.382Z,0.81
2023-04-02T07:40:15.967Z,0.72
2023-04-02T07:41:13.910Z,0.73
2023-04-02T07:42:11.211Z,0.82
2023-04-02T07:43:09.295Z,0.90
2023-04-02T07:44:06.602Z,0.69
2023-04-02T07:45:05.886Z,0.88
2023-04-02T07:46:03.978Z,0.94
2023-04-02T07:47:01.409Z,0.93
2023-04-02T07:48:04.158Z,0.81
2023-04-02T07:49:01.443Z,0.78
2023-04-02T07:49:58.768Z,0.86
2023-04-02T07:50:56.151Z,0.82
2023-04-02T07:51:53.502Z,0.85
2023-04-02T07:52:50.779Z,0.86
2023-04-02T07:53:55.650Z,0.86
2023-04-02T07:54:53.007Z,0.90
2023-04-02T07:55:52.382Z,0.98
2023-04-02T07:56:49.718Z,0.97
2023-04-02T07:57:51.403Z,0.97
2023-04-02T07:58:49.270Z,0.91
2023-04-02T07:59:46.833Z,0.75
2023-04-02T08:00:44.185Z,0.84
2023-04-02T08:01:43.106Z,0.84
2023-04-02T08:02:47.512Z,0.90
2023-04-02T08:03:45.336Z,1.02
2023-04-02T08:04:42.675Z,1.03
2023-04-02T08:05:39.983Z,1.01
2023-04-02T08:06:37.286Z,0.92
2023-04-02T08:07:35.350Z,0.89
2023-04-02T08:08:32.736Z,1.06
2023-04-02T08:09:30.009Z,1.04
2023-04-02T08:10:27.415Z,0.99
2023-04-02T08:11:24.741Z,0.99
2023-04-02T08:12:22.120Z,1.15
2023-04-02T08:13:19.696Z,1.04
2023-04-02T08:14:17.028Z,1.15
2023-04-02T08:15:15.496Z,0.98
2023-04-02T08:16:12.882Z,1.07
2023-04-02T08:17:10.488Z,1.12
2023-04-02T08:18:07.967Z,1.04
2023-04-02T08:19:05.895Z,0.86
2023-04-02T08:20:04.494Z,1.02
2023-04-02T08:21:02.086Z,0.94
2023-04-02T08:21:59.519Z,0.98
2023-04-02T08:22:58.243Z,0.97
2023-04-02T08:23:56.104Z,0.94
2023-04-02T08:24:53.516Z,0.96
2023-04-02T08:25:50.906Z,1.01
2023-04-02T08:26:50.033Z,1.26
2023-04-02T08:27:48.839Z,1.06
2023-04-02T08:28:46.182Z,1.24
2023-04-02T08:29:43.452Z,1.04
2023-04-02T08:30:41.166Z,0.88
2023-04-02T08:31:38.618Z,0.93
2023-04-02T08:32:36.001Z,1.20
2023-04-02T08:33:33.373Z,1.03
2023-04-02T08:34:30.878Z,1.26
2023-04-02T08:35:28.162Z,0.94
2023-04-02T08:36:34.979Z,1.07
2023-04-02T08:37:32.375Z,0.88
2023-04-02T08:38:29.733Z,0.83
2023-04-02T08:39:29.396Z,0.82
2023-04-02T08:40:34.180Z,0.88
2023-04-02T08:41:36.915Z,0.74
2023-04-02T08:42:34.210Z,0.81
2023-04-02T08:43:31.530Z,0.89
2023-04-02T08:44:59.588Z,0.80
2023-04-02T08:46:01.754Z,0.96
2023-04-02T08:47:07.153Z,0.76
2023-04-02T08:48:06.541Z,0.91
2023-04-02T08:49:11.871Z,0.95
2023-04-02T08:50:09.583Z,0.87
2023-04-02T08:51:08.284Z,0.81
2023-04-02T08:52:05.577Z,0.89
2023-04-02T08:53:05.073Z,0.84
2023-04-02T08:54:08.938Z,1.24
2023-04-02T08:55:17.699Z,1.12
2023-04-02T08:56:38.132Z,1.19
2023-04-02T08:57:43.152Z,1.37
2023-04-02T08:58:59.207Z,0.87
2023-04-02T09:00:20.414Z,0.78
2023-04-02T09:01:20.777Z,0.74
2023-04-02T09:02:30.358Z,0.71
2023-04-02T09:03:40.682Z,0.89
2023-04-02T09:04:38.725Z,0.68
2023-04-02T09:05:39.354Z,0.73
2023-04-02T09:06:37.340Z,0.61
2023-04-02T09:07:34.914Z,0.80
2023-04-02T09:08:33.295Z,0.82
2023-04-02T09:09:36.066Z,0.71
2023-04-02T09:10:43.640Z,0.84
2023-04-02T09:12:04.065Z,0.76
2023-04-02T09:13:03.058Z,0.76
2023-04-02T09:14:04.117Z,0.87
2023-04-02T09:15:01.462Z,0.81
2023-04-02T09:16:05.715Z,0.86
2023-04-02T09:17:04.012Z,0.91
2023-04-02T09:18:13.106Z,0.80
2023-04-02T09:19:21.880Z,1.40
2023-04-02T09:20:21.439Z,1.21
2023-04-02T09:21:21.929Z,0.98
2023-04-02T09:22:25.296Z,0.89
2023-04-02T09:23:26.167Z,0.65
2023-04-02T09:24:24.781Z,0.74
2023-04-02T09:25:31.406Z,0.64
2023-04-02T09:26:31.280Z,0.69
2023-04-02T09:27:31.485Z,0.71
2023-04-02T09:28:28.764Z,0.60
2023-04-02T09:29:45.559Z,0.59
2023-04-02T09:30:55.542Z,0.61
2023-04-02T09:32:04.187Z,0.67
2023-04-02T09:33:07.530Z,0.73
2023-04-02T09:34:25.089Z,0.76
2023-04-02T09:35:39.634Z,0.93
2023-04-02T09:36:38.702Z,0.78
2023-04-02T09:37:37.421Z,0.99
2023-04-02T09:38:35.511Z,1.44
2023-04-02T09:39:32.940Z,0.70
2023-04-02T09:40:35.240Z,0.65
2023-04-02T09:41:36.696Z,0.73
2023-04-02T09:42:36.444Z,0.82
2023-04-02T09:43:35.834Z,0.95
2023-04-02T09:44:33.714Z,0.92
2023-04-02T09:45:31.275Z,0.88
2023-04-02T09:46:29.406Z,0.75
2023-04-02T09:47:28.841Z,1.06
2023-04-02T09:48:53.384Z,1.07
2023-04-02T09:49:51.812Z,1.08
2023-04-02T09:50:49.208Z,0.90
2023-04-02T09:51:46.889Z,0.84
2023-04-02T09:52:44.192Z,0.85
2023-04-02T09:53:52.086Z,0.73
2023-04-02T09:55:09.572Z,0.92
2023-04-02T09:56:18.032Z,0.76
2023-04-02T09:57:18.662Z,1.31
2023-04-02T09:58:17.173Z,1.41
2023-04-02T09:59:18.801Z,1.04
2023-04-02T10:00:30.426Z,1.05
2023-04-02T10:01:31.190Z,1.18
2023-04-02T10:02:29.996Z,1.17
2023-04-02T10:03:33.000Z,1.22
2023-04-02T10:04:45.285Z,1.08
2023-04-02T10:05:44.026Z,1.26
2023-04-02T10:06:49.727Z,1.53
2023-04-02T10:07:48.931Z,1.46
2023-04-02T10:08:46.840Z,1.47
2023-04-02T10:09:44.198Z,1.41
2023-04-02T10:10:48.195Z,1.35
2023-04-02T10:11:46.965Z,0.96
2023-04-02T10:12:49.059Z,1.09
2023-04-02T10:13:52.830Z,1.14
2023-04-02T10:14:52.991Z,1.14
2023-04-02T10:16:08.806Z,0.81
2023-04-02T10:17:20.067Z,0.95
2023-04-02T10:18:17.544Z,1.38
2023-04-02T10:19:21.133Z,1.08
2023-04-02T10:20:21.853Z,1.04
2023-04-02T10:21:25.292Z,1.02
2023-04-02T10:22:23.143Z,1.94
2023-04-02T10:23:24.910Z,1.50
2023-04-02T10:24:23.433Z,0.81
2023-04-02T10:25:24.968Z,0.78
2023-04-02T10:26:22.315Z,0.72
2023-04-02T10:27:48.918Z,0.80
2023-04-02T10:29:01.526Z,0.60
2023-04-02T10:30:22.118Z,0.53
2023-04-02T10:31:25.466Z,0.68
2023-04-02T10:32:28.739Z,0.68
2023-04-02T10:33:37.103Z,0.76
2023-04-02T10:34:43.002Z,0.96
2023-04-02T10:35:51.829Z,0.94
2023-04-02T10:36:57.971Z,0.59
2023-04-02T10:37:58.182Z,0.66
2023-04-02T10:38:55.495Z,0.61
2023-04-02T10:40:01.880Z,0.80
2023-04-02T10:41:02.797Z,0.77
2023-04-02T10:42:18.750Z,0.73
2023-04-02T10:43:36.618Z,0.56
2023-04-02T10:44:42.461Z,0.48
2023-04-02T10:45:49.722Z,0.45
2023-04-02T10:47:11.374Z,0.53
2023-04-02T10:48:21.651Z,0.48
2023-04-02T10:49:22.127Z,0.58
2023-04-02T10:50:45.709Z,0.58
2023-04-02T10:51:51.620Z,0.58
2023-04-02T10:52:56.595Z,0.50
2023-04-02T10:54:17.393Z,0.48
2023-04-02T10:55:25.902Z,0.43
2023-04-02T10:56:26.334Z,0.60
2023-04-02T10:57:43.491Z,0.63
2023-04-02T10:58:56.917Z,0.54
2023-04-02T11:00:15.795Z,0.70
2023-04-02T11:01:19.885Z,0.53
2023-04-02T11:02:32.073Z,0.54
2023-04-02T11:03:45.696Z,0.73
2023-04-02T11:04:46.180Z,0.52
2023-04-02T11:05:46.841Z,0.66
2023-04-02T11:06:48.182Z,0.81
2023-04-02T11:07:53.117Z,0.89
2023-04-02T11:09:04.947Z,0.53
2023-04-02T11:10:03.716Z,0.53
2023-04-02T11:11:08.063Z,0.55
2023-04-02T11:12:07.965Z,0.52
2023-04-02T11:13:28.155Z,0.54
2023-04-02T11:14:27.799Z,0.65
2023-04-02T11:15:26.278Z,0.54
2023-04-02T11:16:24.155Z,0.53
2023-04-02T11:17:22.016Z,0.55
2023-04-02T11:18:34.193Z,0.51
2023-04-02T11:19:33.032Z,0.59
2023-04-02T11:20:48.563Z,0.61
2023-04-02T11:21:58.015Z,0.52
2023-04-02T11:23:15.647Z,0.60
2023-04-02T11:24:32.865Z,0.50
2023-04-02T11:25:30.513Z,0.58
2023-04-02T11:26:38.210Z,0.63
2023-04-02T11:27:36.316Z,0.52
2023-04-02T11:28:33.834Z,0.65
2023-04-02T11:29:32.978Z,0.65
2023-04-02T11:30:30.549Z,0.49
2023-04-02T11:31:27.912Z,0.47
2023-04-02T11:32:31.511Z,0.61
2023-04-02T11:33:37.690Z,0.74
2023-04-02T11:34:43.025Z,0.69
2023-04-02T11:35:40.946Z,0.57
2023-04-02T11:36:50.773Z,0.55
2023-04-02T11:37:48.422Z,0.69
2023-04-02T11:38:46.442Z,0.47
2023-04-02T11:39:53.518Z,0.86
2023-04-02T11:40:52.972Z,0.99
2023-04-02T11:42:04.597Z,0.75
2023-04-02T11:43:20.577Z,0.67
2023-04-02T11:44:24.833Z,0.66
2023-04-02T11:45:23.136Z,0.83
2023-04-02T11:46:20.696Z,1.75
2023-04-02T11:47:19.530Z,0.82
2023-04-02T11:48:16.898Z,0.72
2023-04-02T11:49:33.602Z,0.68
2023-04-02T11:50:32.865Z,1.37
2023-04-02T11:51:33.192Z,0.92
2023-04-02T11:52:49.626Z,1.32
2023-04-02T11:53:47.976Z,1.06
2023-04-02T11:54:45.396Z,0.67
2023-04-02T11:55:46.678Z,0.73
2023-04-02T11:56:49.122Z,0.80
2023-04-02T11:58:06.778Z,0.84
2023-04-02T11:59:16.160Z,0.73
2023-04-02T12:00:28.626Z,0.78
2023-04-02T12:01:44.071Z,0.86
2023-04-02T12:03:02.585Z,0.78
2023-04-02T12:04:19.347Z,0.48
2023-04-02T12:05:32.145Z,0.75
2023-04-02T12:06:48.715Z,0.99
2023-04-02T12:07:52.445Z,0.84
2023-04-02T12:09:05.645Z,0.73
2023-04-02T12:10:16.050Z,0.62
2023-04-02T12:11:14.725Z,0.51
2023-04-02T12:12:23.887Z,0.55
2023-04-02T12:13:41.230Z,0.62
2023-04-02T12:14:43.728Z,0.69
2023-04-02T12:15:46.164Z,0.80
2023-04-02T12:16:43.801Z,0.84
2023-04-02T12:17:41.302Z,0.89
2023-04-02T12:18:55.213Z,0.95
2023-04-02T12:19:54.615Z,0.94
2023-04-02T12:20:55.008Z,0.88
2023-04-02T12:21:56.524Z,0.82
2023-04-02T12:22:55.743Z,0.81
2023-04-02T12:23:56.297Z,0.71
2023-04-02T12:24:59.717Z,0.82
2023-04-02T12:26:01.723Z,1.02
2023-04-02T12:27:17.432Z,1.01
2023-04-02T12:28:20.082Z,0.78
2023-04-02T12:29:28.269Z,0.64
2023-04-02T12:30:25.863Z,0.73
2023-04-02T12:31:25.328Z,0.79
2023-04-02T12:32:27.856Z,0.63
2023-04-02T12:33:30.551Z,0.72
2023-04-02T12:34:29.499Z,0.82
2023-04-02T12:35:33.205Z,0.78
2023-04-02T12:36:31.858Z,0.66
2023-04-02T12:37:30.484Z,0.57
2023-04-02T12:38:29.378Z,0.68
2023-04-02T12:39:28.440Z,0.97
2023-04-02T12:40:26.961Z,0.90
2023-04-02T12:41:37.194Z,0.87
2023-04-02T12:42:35.801Z,1.16
2023-04-02T12:43:34.960Z,0.87
2023-04-02T12:44:32.809Z,0.67
2023-04-02T12:45:33.504Z,0.81
2023-04-02T12:46:32.131Z,0.79
2023-04-02T12:47:30.205Z,0.94
2023-04-02T12:48:29.619Z,0.64
2023-04-02T12:49:36.854Z,0.56
2023-04-02T12:50:35.285Z,0.72
2023-04-02T12:51:35.433Z,0.71
2023-04-02T12:52:33.229Z,0.62
2023-04-02T12:53:41.107Z,0.72
2023-04-02T12:54:45.875Z,0.58
2023-04-02T12:55:46.975Z,0.89
2023-04-02T12:56:44.772Z,0.90
2023-04-02T12:57:42.217Z,0.74
2023-04-02T12:58:45.662Z,0.62
2023-04-02T12:59:43.722Z,0.81
2023-04-02T13:00:41.306Z,0.85
2023-04-02T13:01:39.088Z,0.78
2023-04-02T13:02:47.370Z,0.53
2023-04-02T13:03:59.431Z,0.72
2023-04-02T13:05:00.800Z,0.85
2023-04-02T13:05:58.237Z,1.22
2023-04-02T13:06:56.951Z,1.00
2023-04-02T13:07:54.253Z,0.93
2023-04-02T13:08:53.145Z,0.68
2023-04-02T13:10:01.500Z,0.57
2023-04-02T13:11:00.903Z,0.64
2023-04-02T13:11:58.439Z,0.76
2023-04-02T13:13:00.432Z,0.77
2023-04-02T13:14:02.097Z,0.77
2023-04-02T13:15:01.961Z,0.53
2023-04-02T13:16:04.196Z,0.51
2023-04-02T13:17:01.522Z,0.71
2023-04-02T13:18:20.034Z,0.56
2023-04-02T13:19:17.395Z,0.56
2023-04-02T13:20:38.721Z,0.51
2023-04-02T13:21:36.318Z,0.72
2023-04-02T13:22:34.407Z,0.66
2023-04-02T13:23:31.956Z,0.73
2023-04-02T13:24:31.509Z,0.82
2023-04-02T13:25:31.304Z,0.77
2023-04-02T13:26:29.753Z,0.60
2023-04-02T13:27:27.095Z,0.53
2023-04-02T13:28:24.579Z,0.60
2023-04-02T13:29:24.703Z,0.63
2023-04-02T13:30:24.086Z,0.64
2023-04-02T13:31:21.476Z,0.55
2023-04-02T13:32:19.988Z,0.68
2023-04-02T13:33:17.342Z,0.55
2023-04-02T13:34:14.912Z,0.67
2023-04-02T13:35:12.327Z,1.07
2023-04-02T13:36:14.280Z,1.39
2023-04-02T13:37:13.993Z,1.03
2023-04-02T13:38:11.375Z,0.92
2023-04-02T13:39:09.065Z,0.88
2023-04-02T13:40:08.515Z,0.67
2023-04-02T13:41:10.746Z,0.56
2023-04-02T13:42:11.780Z,0.55
2023-04-02T13:43:17.052Z,0.67
2023-04-02T13:44:40.691Z,0.68
2023-04-02T13:45:42.676Z,0.62
2023-04-02T13:46:39.978Z,0.68
2023-04-02T13:47:39.135Z,0.44
2023-04-02T13:48:38.401Z,0.75
2023-04-02T13:49:35.927Z,0.54
2023-04-02T13:50:34.826Z,0.58
2023-04-02T13:51:49.605Z,0.62
2023-04-02T13:52:47.858Z,0.61
2023-04-02T13:53:47.772Z,0.56
2023-04-02T13:54:49.410Z,0.73
2023-04-02T13:55:46.912Z,0.69
2023-04-02T13:56:44.300Z,0.65
2023-04-02T13:57:41.580Z,0.60
2023-04-02T13:58:38.879Z,0.69
2023-04-02T13:59:36.310Z,0.64
2023-04-02T14:00:36.708Z,0.59
2023-04-02T14:01:34.737Z,0.64
2023-04-02T14:02:33.845Z,0.63
2023-04-02T14:03:31.565Z,0.69